Time;durP1;ratioP1;P1;durP2;ratioP2;P2;SDS_P1;SDS_P2;PMS_P1;PMS_P2;Temp;Humidity;BMP_temperature;BMP_pressure;BME280_temperature;BME280_humidity;BME280_pressure;Samples;Min_cycle;Max_cycle;Signal;HPM_P1;HPM_P2
2022/04/06 00:01:55;;;;;;;7.62;5.30;;;;;;;7.23;60.72;97098.75;1723029;83;21007;-79
2022/04/06 00:04:23;;;;;;;6.00;4.85;;;;;;;7.21;60.18;97095.76;1708326;84;21078;-79
2022/04/06 00:06:53;;;;;;;7.35;4.85;;;;;;;7.19;59.70;97095.80;1740997;82;21027;-79
2022/04/06 00:09:20;;;;;;;8.05;5.65;;;;;;;7.20;59.58;97100.19;1737390;83;21416;-78
2022/04/06 00:11:47;;;;;;;7.85;5.00;;;;;;;7.21;60.11;97099.71;1708551;84;21006;-79
2022/04/06 00:14:13;;;;;;;7.05;5.33;;;;;;;7.20;59.58;97102.82;1751611;82;21004;-79
2022/04/06 00:16:40;;;;;;;10.03;6.05;;;;;;;7.21;59.58;97101.03;1709916;83;21431;-78
2022/04/06 00:19:08;;;;;;;9.90;6.00;;;;;;;7.22;59.63;97104.06;1709185;83;21051;-79
2022/04/06 00:21:35;;;;;;;8.33;6.10;;;;;;;7.21;60.82;97096.63;1708644;84;21055;-79
2022/04/06 00:24:01;;;;;;;8.50;5.83;;;;;;;7.17;60.15;97102.02;1684580;84;21020;-79
2022/04/06 00:26:28;;;;;;;7.62;5.50;;;;;;;7.18;59.91;97091.92;1680256;85;21519;-79
2022/04/06 00:28:55;;;;;;;9.13;6.10;;;;;;;7.21;59.76;97098.39;1693974;82;21035;-79
2022/04/06 00:31:21;;;;;;;9.25;5.87;;;;;;;7.22;59.80;97099.67;1707096;84;21047;-79
2022/04/06 00:33:48;;;;;;;8.10;6.12;;;;;;;7.23;59.88;97097.44;1709072;84;21032;-80
2022/04/06 00:36:14;;;;;;;8.63;5.97;;;;;;;7.22;59.71;97100.98;1709201;84;20984;-79
2022/04/06 00:38:41;;;;;;;9.35;6.35;;;;;;;7.22;60.05;97098.80;1708787;84;21079;-79
2022/04/06 00:41:08;;;;;;;11.30;6.00;;;;;;;7.19;60.63;97098.91;1699778;84;21071;-79
2022/04/06 00:43:34;;;;;;;7.67;6.00;;;;;;;7.20;60.51;97091.41;1680357;85;21035;-79
2022/04/06 00:46:00;;;;;;;9.88;6.50;;;;;;;7.21;60.38;97095.76;1680219;85;21361;-79
2022/04/06 00:48:28;;;;;;;10.88;6.62;;;;;;;7.22;60.37;97103.63;1680230;85;21476;-79
2022/04/06 00:50:58;;;;;;;9.25;6.35;;;;;;;7.21;60.35;97097.08;1686662;84;21521;-79
2022/04/06 00:53:25;;;;;;;10.13;6.62;;;;;;;7.20;60.80;97098.87;1708584;84;21089;-79
2022/04/06 00:55:52;;;;;;;8.13;6.35;;;;;;;7.21;60.68;97095.76;1708976;84;20984;-78
2022/04/06 00:58:19;;;;;;;9.33;6.28;;;;;;;7.20;60.78;97098.87;1708899;84;21063;-78
2022/04/06 01:00:46;;;;;;;9.50;6.87;;;;;;;7.22;60.53;97104.06;1704896;84;20996;-78
2022/04/06 01:03:12;;;;;;;11.38;6.85;;;;;;;7.19;60.58;97094.48;1680234;85;21031;-77
2022/04/06 01:05:39;;;;;;;8.23;5.75;;;;;;;7.20;60.72;97098.87;1680697;85;21580;-79
2022/04/06 01:08:07;;;;;;;8.30;6.40;;;;;;;7.20;60.76;97097.55;1680401;85;21516;-78
2022/04/06 01:10:34;;;;;;;10.23;6.80;;;;;;;7.19;60.89;97101.55;1701050;84;21067;-78
2022/04/06 01:13:01;;;;;;;9.53;6.95;;;;;;;7.18;60.85;97100.67;1708804;84;21025;-78
2022/04/06 01:15:28;;;;;;;9.83;6.62;;;;;;;7.17;61.12;97100.27;1708632;84;21102;-78
2022/04/06 01:17:55;;;;;;;8.88;6.47;;;;;;;7.15;61.63;97098.59;1708377;82;21055;-78
2022/04/06 01:20:21;;;;;;;9.35;7.30;;;;;;;7.12;61.87;97099.55;1693314;84;21063;-78
2022/04/06 01:22:48;;;;;;;10.38;7.25;;;;;;;7.10;61.66;97099.59;1683792;85;21071;-78
2022/04/06 01:25:14;;;;;;;10.95;7.45;;;;;;;7.10;61.99;97101.38;1683414;85;21044;-78
2022/04/06 01:27:41;;;;;;;9.58;6.75;;;;;;;7.09;61.59;97100.50;1686148;82;21098;-78
2022/04/06 01:30:10;;;;;;;9.25;6.83;;;;;;;7.08;61.38;97102.73;1711522;84;21056;-78
2022/04/06 01:32:36;;;;;;;15.15;8.35;;;;;;;7.07;61.59;97100.14;1712304;84;21012;-78
2022/04/06 01:35:06;;;;;;;10.85;7.55;;;;;;;7.04;62.13;97102.85;1712458;84;21028;-78
2022/04/06 01:37:34;;;;;;;9.58;7.25;;;;;;;7.02;61.97;97105.53;1708148;84;21059;-78
2022/04/06 01:40:04;;;;;;;10.70;7.35;;;;;;;7.00;62.05;97104.72;1683381;85;21071;-78
2022/04/06 01:42:31;;;;;;;9.50;7.28;;;;;;;6.97;62.10;97105.68;1683831;85;22154;-78
2022/04/06 01:44:58;;;;;;;9.95;7.40;;;;;;;6.98;61.93;97105.23;1683521;85;21040;-78
2022/04/06 01:47:25;;;;;;;10.45;7.47;;;;;;;6.97;61.96;97107.44;1684895;84;21474;-78
2022/04/06 01:52:37;;;;;;;8.88;6.33;;;;;;;6.96;62.18;97103.95;1712523;84;21043;-78
2022/04/06 01:55:11;;;;;;;8.95;6.78;;;;;;;6.93;63.67;97110.63;1712184;84;21108;-78
2022/04/06 01:57:39;;;;;;;10.13;6.67;;;;;;;6.91;62.71;97110.26;1708962;84;21106;-78
2022/04/06 02:00:10;;;;;;;8.95;6.67;;;;;;;6.89;62.84;97109.45;1684062;84;21075;-78
2022/04/06 02:02:52;;;;;;;13.48;7.12;;;;;;;6.86;63.26;97115.67;1678255;85;21016;-78
2022/04/06 02:05:21;;;;;;;8.68;6.58;;;;;;;6.83;63.24;97113.99;1683579;85;21500;-77
2022/04/06 02:07:50;;;;;;;10.93;6.28;;;;;;;6.79;63.92;97106.20;1688709;84;21447;-78
2022/04/06 02:10:17;;;;;;;10.40;6.60;;;;;;;6.75;63.11;97110.70;1711791;84;21465;-78
2022/04/06 02:12:48;;;;;;;11.65;7.05;;;;;;;6.77;62.99;97111.98;1711715;84;21107;-78
2022/04/06 02:15:15;;;;;;;12.93;7.15;;;;;;;6.78;62.82;97112.39;1712093;84;21080;-78
2022/04/06 02:17:43;;;;;;;9.30;7.35;;;;;;;6.78;63.21;97110.63;1688885;84;21493;-78
2022/04/06 02:20:11;;;;;;;9.33;6.67;;;;;;;6.74;64.11;97106.35;1700884;84;20966;-78
2022/04/06 02:22:38;;;;;;;10.30;6.90;;;;;;;6.73;63.29;97105.95;1703577;84;21029;-78
2022/04/06 02:25:06;;;;;;;11.38;7.72;;;;;;;6.72;63.14;97109.02;1703375;84;21434;-78
2022/04/06 02:27:32;;;;;;;13.20;8.43;;;;;;;6.72;63.27;97111.66;1709299;83;21076;-78
2022/04/06 02:29:59;;;;;;;12.20;8.75;;;;;;;6.71;63.13;97107.74;1730656;83;21372;-78
2022/04/06 02:32:26;;;;;;;13.68;9.38;;;;;;;6.69;63.30;97111.73;1732841;82;20958;-78
2022/04/06 02:34:53;;;;;;;15.45;11.50;;;;;;;6.65;63.50;97104.85;1732491;83;21404;-78
2022/04/06 02:37:19;;;;;;;21.12;11.90;;;;;;;6.63;63.39;97111.91;1706768;83;21023;-77
2022/04/06 02:39:49;;;;;;;17.50;12.00;;;;;;;6.56;63.56;97105.95;1732317;83;21022;-77
2022/04/06 02:42:14;;;;;;;15.75;10.65;;;;;;;6.53;63.40;97111.77;1732271;82;20998;-78
2022/04/06 02:44:41;;;;;;;15.48;9.80;;;;;;;6.46;63.34;97114.57;1726160;82;21068;-77
2022/04/06 02:47:08;;;;;;;16.57;11.40;;;;;;;6.39;63.78;97109.05;1702798;84;21020;-77
2022/04/06 02:49:34;;;;;;;17.27;11.70;;;;;;;6.29;64.37;97106.25;1703377;84;20966;-77
2022/04/06 02:52:01;;;;;;;19.67;11.93;;;;;;;6.17;63.75;97108.31;1703413;84;21092;-77
2022/04/06 02:54:27;;;;;;;19.48;12.65;;;;;;;6.08;63.78;97103.29;1706585;83;21431;-77
2022/04/06 02:56:54;;;;;;;21.35;13.00;;;;;;;6.01;65.01;97109.56;1732736;83;21034;-77
2022/04/06 02:59:21;;;;;;;18.65;13.00;;;;;;;5.93;64.62;97110.64;1732457;82;21531;-78
2022/04/06 03:01:47;;;;;;;17.98;11.20;;;;;;;5.85;67.04;97111.27;1732909;83;21030;-78
2022/04/06 03:04:14;;;;;;;18.07;11.57;;;;;;;5.78;67.60;97115.81;1732672;82;21002;-78
2022/04/06 03:06:41;;;;;;;18.37;12.10;;;;;;;5.74;66.40;97108.05;1703972;83;21064;-79
2022/04/06 03:09:08;;;;;;;15.95;9.18;;;;;;;5.75;66.38;97105.83;1703835;84;21001;-79
2022/04/06 03:11:36;;;;;;;15.38;9.40;;;;;;;5.77;66.22;97107.98;1702951;84;21625;-79
2022/04/06 03:14:03;;;;;;;12.85;9.33;;;;;;;5.75;65.90;97115.91;1703263;84;20982;-79
2022/04/06 03:16:30;;;;;;;14.47;9.15;;;;;;;5.75;65.74;97117.66;1712718;83;21041;-78
2022/04/06 03:18:57;;;;;;;12.47;9.78;;;;;;;5.74;66.37;97117.25;1703240;83;20990;-78
2022/04/06 03:21:23;;;;;;;12.07;9.33;;;;;;;5.74;66.18;97117.25;1703839;84;20993;-78
2022/04/06 03:23:50;;;;;;;16.32;9.43;;;;;;;5.74;65.95;97119.88;1703763;84;21042;-78
2022/04/06 03:26:17;;;;;;;13.18;9.30;;;;;;;5.73;66.12;97118.16;1726554;83;21463;-77
2022/04/06 03:28:43;;;;;;;14.65;9.33;;;;;;;5.75;66.32;97115.03;1728348;81;21029;-78
2022/04/06 03:31:10;;;;;;;17.87;10.65;;;;;;;5.76;66.12;97115.00;1716021;84;21088;-77
2022/04/06 03:33:36;;;;;;;15.98;10.30;;;;;;;5.77;66.28;97123.30;1716022;83;21041;-77
2022/04/06 03:36:04;;;;;;;20.57;11.38;;;;;;;5.79;66.42;97119.31;1726779;83;20995;-77
2022/04/06 03:38:30;;;;;;;20.02;12.30;;;;;;;5.78;66.60;97123.70;1732791;83;21428;-78
2022/04/06 03:40:57;;;;;;;18.02;11.68;;;;;;;5.78;66.46;97123.70;1732620;83;21098;-77
2022/04/06 03:43:24;;;;;;;17.95;11.83;;;;;;;5.79;66.45;97135.97;1732719;83;21424;-77
2022/04/06 03:45:50;;;;;;;19.52;12.65;;;;;;;5.76;66.34;97135.16;1717234;83;20986;-76
2022/04/06 03:48:17;;;;;;;19.05;11.68;;;;;;;5.75;67.47;97146.58;1703538;84;21013;-76
2022/04/06 03:50:44;;;;;;;18.10;11.60;;;;;;;5.71;66.69;97151.49;1703726;84;20966;-76
2022/04/06 03:53:10;;;;;;;17.70;12.47;;;;;;;5.68;66.33;97149.36;1703408;84;21029;-76
2022/04/06 03:55:37;;;;;;;19.40;11.88;;;;;;;5.69;66.37;97151.52;1715719;83;21051;-76
2022/04/06 03:58:04;;;;;;;18.00;11.97;;;;;;;5.67;66.34;97152.02;1732639;83;21036;-76
2022/04/06 04:00:31;;;;;;;20.05;12.35;;;;;;;5.67;66.35;97154.65;1731258;83;21195;-76
2022/04/06 04:02:58;;;;;;;21.07;12.55;;;;;;;5.66;66.32;97153.77;1730862;83;21066;-76
2022/04/06 04:05:25;;;;;;;17.98;11.57;;;;;;;5.66;66.27;97159.50;1731560;82;20959;-76
2022/04/06 04:07:52;;;;;;;18.35;12.18;;;;;;;5.64;66.58;97166.11;1731394;82;21486;-77
2022/04/06 04:10:19;;;;;;;20.95;12.95;;;;;;;5.64;66.79;97167.42;1731676;83;21018;-77
2022/04/06 04:12:46;;;;;;;20.20;12.63;;;;;;;5.63;66.91;97170.95;1704751;82;21486;-77
2022/04/06 04:15:13;;;;;;;20.12;12.53;;;;;;;5.60;67.83;97168.86;1684226;84;20989;-77
2022/04/06 04:17:39;;;;;;;21.70;12.95;;;;;;;5.54;67.97;97173.35;1674349;86;21020;-77
2022/04/06 04:20:08;;;;;;;20.55;11.45;;;;;;;5.50;68.41;97172.13;1660910;85;21124;-77
2022/04/06 04:22:34;;;;;;;20.45;12.23;;;;;;;5.50;67.95;97176.06;1652607;85;21422;-77
2022/04/06 04:25:01;;;;;;;23.50;12.82;;;;;;;5.52;68.08;97176.91;1674692;85;21032;-77
2022/04/06 04:27:29;;;;;;;18.90;12.07;;;;;;;5.55;67.71;97175.52;1679505;85;21880;-77
2022/04/06 04:29:58;;;;;;;17.23;11.38;;;;;;;5.62;68.66;97178.87;1652549;87;21104;-77
2022/04/06 04:32:25;;;;;;;20.45;11.73;;;;;;;5.68;68.15;97178.72;1652772;87;21020;-77
2022/04/06 04:34:52;;;;;;;20.15;12.00;;;;;;;5.78;68.14;97181.55;1651851;85;21107;-77
2022/04/06 04:37:18;;;;;;;19.05;12.60;;;;;;;5.87;68.19;97175.23;1651005;87;21039;-77
2022/04/06 04:39:46;;;;;;;19.42;11.20;;;;;;;5.99;68.32;97186.34;1650679;87;21036;-77
2022/04/06 04:42:12;;;;;;;17.57;11.15;;;;;;;6.04;68.12;97194.58;1650694;87;21012;-78
2022/04/06 04:44:39;;;;;;;16.70;10.68;;;;;;;6.12;68.12;97191.76;1669493;85;21067;-78
2022/04/06 04:47:06;;;;;;;19.27;11.10;;;;;;;6.23;68.08;97190.63;1680149;85;21020;-77
2022/04/06 04:49:33;;;;;;;20.48;11.50;;;;;;;6.29;67.98;97193.97;1680729;85;21080;-78
2022/04/06 04:51:59;;;;;;;17.98;11.50;;;;;;;6.31;67.51;97193.94;1680907;85;21508;-78
2022/04/06 04:54:26;;;;;;;17.98;11.15;;;;;;;6.35;67.65;97196.87;1664607;85;21108;-77
2022/04/06 04:56:53;;;;;;;18.60;11.00;;;;;;;6.40;67.59;97205.52;1666586;85;20962;-78
2022/04/06 04:59:19;;;;;;;20.23;11.25;;;;;;;6.40;67.33;97202.88;1669995;86;21040;-77
2022/04/06 05:01:46;;;;;;;17.75;11.20;;;;;;;6.42;67.19;97202.84;1671166;85;21064;-77
2022/04/06 05:04:13;;;;;;;18.23;11.15;;;;;;;6.44;67.02;97207.64;1680548;85;21001;-77
2022/04/06 05:06:39;;;;;;;15.60;10.13;;;;;;;6.48;66.76;97213.25;1663161;85;21044;-78
2022/04/06 05:09:06;;;;;;;16.10;10.18;;;;;;;6.47;66.58;97213.69;1652693;85;21520;-77
2022/04/06 05:11:33;;;;;;;20.75;10.63;;;;;;;6.46;66.51;97219.86;1674364;86;21007;-78
2022/04/06 05:14:00;;;;;;;19.67;10.63;;;;;;;6.50;66.46;97220.64;1646398;87;21042;-77
2022/04/06 05:16:26;;;;;;;14.85;10.45;;;;;;;6.49;66.33;97216.72;1702928;83;21440;-77
2022/04/06 05:18:56;;;;;;;18.90;10.82;;;;;;;6.44;66.49;97211.59;1716016;83;21453;-77
2022/04/06 05:21:22;;;;;;;16.00;10.13;;;;;;;6.34;66.19;97224.98;1715233;84;21052;-77
2022/04/06 05:23:49;;;;;;;16.12;10.35;;;;;;;6.26;66.00;97224.30;1687232;84;21056;-77
2022/04/06 05:26:16;;;;;;;16.75;10.78;;;;;;;6.19;66.27;97242.47;1693981;84;21055;-77
2022/04/06 05:28:43;;;;;;;19.50;11.50;;;;;;;6.10;66.30;97247.94;1698484;84;20997;-77
2022/04/06 05:31:09;;;;;;;18.15;12.73;;;;;;;6.02;66.70;97248.94;1705785;84;20985;-77
2022/04/06 05:33:37;;;;;;;34.03;21.75;;;;;;;6.00;66.73;97245.93;1699869;84;20986;-77
2022/04/06 05:36:07;;;;;;;19.50;13.05;;;;;;;5.95;66.35;97245.58;1700906;84;21087;-78
2022/04/06 05:38:38;;;;;;;15.70;10.72;;;;;;;5.98;66.47;97249.06;1701953;84;20973;-79
2022/04/06 05:41:05;;;;;;;16.35;10.13;;;;;;;5.94;66.26;97250.44;1698305;84;21531;-78
2022/04/06 05:43:32;;;;;;;15.18;10.40;;;;;;;5.92;66.68;97243.05;1699805;82;20984;-78
2022/04/06 05:45:58;;;;;;;14.03;10.08;;;;;;;5.88;66.50;97246.64;1707668;84;20972;-78
2022/04/06 05:48:25;;;;;;;17.90;10.10;;;;;;;5.89;66.48;97247.48;1709539;83;21029;-79
2022/04/06 05:50:52;;;;;;;19.02;10.85;;;;;;;5.91;66.42;97241.32;1699218;83;21458;-79
2022/04/06 05:53:18;;;;;;;17.00;10.00;;;;;;;5.95;66.54;97231.59;1698278;84;21064;-81
2022/04/06 05:55:47;;;;;;;20.15;10.10;;;;;;;5.97;66.40;97238.13;1702956;84;20996;-78
2022/04/06 05:58:14;;;;;;;18.25;11.48;;;;;;;6.01;66.54;97241.08;1695834;83;21033;-79
2022/04/06 06:00:41;;;;;;;17.23;10.03;;;;;;;6.04;66.61;97236.66;1696752;84;21000;-78
2022/04/06 06:03:08;;;;;;;17.42;9.65;;;;;;;6.07;66.51;97241.84;1698703;83;21004;-78
2022/04/06 06:05:34;;;;;;;17.20;10.00;;;;;;;6.12;66.64;97240.87;1703093;84;21028;-80
2022/04/06 06:08:01;;;;;;;19.55;10.60;;;;;;;6.16;66.90;97240.77;1703137;84;21575;-78
2022/04/06 06:10:28;;;;;;;15.03;10.25;;;;;;;6.22;66.52;97234.95;1701364;83;21068;-82
2022/04/06 06:12:55;;;;;;;17.60;10.82;;;;;;;6.27;66.54;97237.86;1705529;83;21422;-81
2022/04/06 06:15:22;;;;;;;19.65;13.28;;;;;;;6.35;66.51;97237.67;1700786;84;21080;-81
2022/04/06 06:17:48;;;;;;;18.77;11.45;;;;;;;6.42;66.76;97234.44;1704386;83;20981;-80
2022/04/06 06:20:15;;;;;;;23.07;13.28;;;;;;;6.54;66.90;97238.53;1704846;83;21024;-79
2022/04/06 06:22:42;;;;;;;24.18;13.58;;;;;;;6.64;66.89;97234.75;1712826;83;21024;-80
2022/04/06 06:25:09;;;;;;;23.95;13.75;;;;;;;6.72;66.61;97234.11;1715580;83;21060;-79
2022/04/06 06:27:44;;;;;;;19.77;13.25;;;;;;;6.81;66.59;97232.98;1700100;83;21028;-81
2022/04/06 06:30:13;;;;;;;26.70;15.18;;;;;;;6.94;66.58;97241.42;1706784;83;21031;-80
2022/04/06 06:32:41;;;;;;;24.43;14.90;;;;;;;7.07;66.50;97235.39;1711178;83;21085;-79
2022/04/06 06:35:09;;;;;;;22.55;14.60;;;;;;;7.20;66.28;97246.89;1706983;83;21028;-79
2022/04/06 06:37:36;;;;;;;23.83;14.85;;;;;;;7.31;66.14;97237.37;1708630;83;21481;-81
2022/04/06 06:40:05;;;;;;;22.45;15.05;;;;;;;7.40;66.08;97239.74;1709505;83;21029;-80
2022/04/06 06:42:32;;;;;;;25.52;17.05;;;;;;;7.51;65.93;97238.09;1711492;83;21016;-80
2022/04/06 06:44:58;;;;;;;41.68;23.67;;;;;;;7.64;65.91;97243.89;1704660;83;21076;-80
2022/04/06 06:47:25;;;;;;;32.60;16.85;;;;;;;7.81;65.72;97248.66;1708763;83;20977;-80
2022/04/06 06:49:52;;;;;;;24.18;15.85;;;;;;;7.93;65.49;97248.70;1711506;83;21051;-81
2022/04/06 06:52:22;;;;;;;22.60;14.70;;;;;;;8.04;65.31;97245.73;1711240;83;21012;-81
2022/04/06 06:54:48;;;;;;;20.55;14.38;;;;;;;8.17;65.19;97249.72;1695726;83;21164;-81
2022/04/06 06:57:14;;;;;;;23.67;14.25;;;;;;;8.31;65.04;97243.98;1710028;83;21017;-80
2022/04/06 06:59:41;;;;;;;19.15;13.03;;;;;;;8.48;64.71;97243.03;1713220;83;21453;-80
2022/04/06 07:02:09;;;;;;;22.77;13.22;;;;;;;8.66;64.55;97241.58;1704304;83;21010;-80
2022/04/06 07:04:37;;;;;;;18.15;11.73;;;;;;;8.87;64.32;97245.70;1713704;83;21033;-80
2022/04/06 07:07:04;;;;;;;18.07;12.40;;;;;;;9.08;63.68;97245.42;1701086;83;21099;-80
2022/04/06 07:09:31;;;;;;;17.07;11.85;;;;;;;9.33;63.58;97241.44;1704256;83;21012;-80
2022/04/06 07:11:58;;;;;;;17.98;11.38;;;;;;;9.57;63.13;97243.22;1701961;83;21032;-80
2022/04/06 07:14:26;;;;;;;15.00;10.30;;;;;;;9.78;62.50;97242.87;1708960;83;21071;-81
2022/04/06 07:16:54;;;;;;;19.73;11.75;;;;;;;9.94;61.46;97242.27;1709278;83;21009;-81
2022/04/06 07:19:21;;;;;;;16.52;10.70;;;;;;;10.00;61.38;97245.54;1720302;83;21048;-80
2022/04/06 07:21:48;;;;;;;15.53;11.15;;;;;;;10.08;61.33;97249.69;1715273;83;21025;-81
2022/04/06 07:24:15;;;;;;;19.25;12.20;;;;;;;10.19;61.05;97243.94;1713974;84;21016;-81
2022/04/06 07:26:41;;;;;;;24.07;12.80;;;;;;;10.27;61.19;97246.70;1687123;85;21012;-81
2022/04/06 07:29:11;;;;;;;21.87;13.53;;;;;;;10.40;60.67;97252.36;1686894;85;21016;-80
2022/04/06 07:31:36;;;;;;;18.73;12.10;;;;;;;10.60;60.03;97252.03;1686650;85;21071;-81
2022/04/06 07:34:03;;;;;;;25.55;11.90;;;;;;;10.87;59.29;97250.93;1686796;85;21021;-81
2022/04/06 07:36:31;;;;;;;19.40;11.60;;;;;;;11.15;59.74;97251.91;1687725;84;21049;-81
2022/04/06 07:38:58;;;;;;;17.48;9.73;;;;;;;11.38;57.97;97253.14;1686709;85;21017;-81
2022/04/06 07:41:25;;;;;;;15.20;10.43;;;;;;;11.59;56.02;97252.16;1686440;85;21077;-81
2022/04/06 07:43:52;;;;;;;13.20;8.70;;;;;;;11.84;57.06;97257.66;1686413;85;21009;-81
2022/04/06 07:46:18;;;;;;;12.63;8.95;;;;;;;12.06;56.44;97259.35;1703749;84;21029;-81
2022/04/06 07:48:45;;;;;;;15.43;9.00;;;;;;;12.25;54.28;97260.64;1715375;84;21005;-81
2022/04/06 07:51:11;;;;;;;15.10;8.73;;;;;;;12.38;53.99;97265.37;1715327;83;21036;-80
2022/04/06 07:53:38;;;;;;;16.07;8.70;;;;;;;12.48;53.57;97265.77;1715233;83;21091;-81
2022/04/06 07:56:06;;;;;;;18.55;9.68;;;;;;;12.57;53.87;97276.44;1714479;84;21406;-81
2022/04/06 07:58:35;;;;;;;12.18;8.83;;;;;;;12.67;53.93;97277.70;1715342;83;21009;-81
2022/04/06 08:01:05;;;;;;;14.00;9.83;;;;;;;12.77;52.51;97276.30;1715111;83;21063;-80
2022/04/06 08:03:31;;;;;;;11.55;9.23;;;;;;;12.84;52.68;97274.66;1715560;83;21036;-80
2022/04/06 08:05:58;;;;;;;15.03;9.30;;;;;;;12.92;52.99;97275.14;1715398;83;20993;-80
2022/04/06 08:08:24;;;;;;;10.80;8.43;;;;;;;12.98;51.70;97269.50;1708460;84;21016;-80
2022/04/06 08:10:53;;;;;;;10.85;8.08;;;;;;;13.03;51.80;97282.55;1703854;84;21071;-79
2022/04/06 08:13:24;;;;;;;9.98;7.70;;;;;;;13.12;52.08;97281.23;1697057;84;20969;-80
2022/04/06 08:15:52;;;;;;;13.35;8.03;;;;;;;13.16;51.79;97279.66;1700744;82;21060;-79
2022/04/06 08:18:20;;;;;;;11.20;7.62;;;;;;;13.20;51.22;97279.90;1702808;82;20965;-78
2022/04/06 08:20:47;;;;;;;10.50;7.03;;;;;;;13.29;51.93;97277.22;1706835;83;22013;-80
2022/04/06 08:23:17;;;;;;;11.03;7.70;;;;;;;13.36;51.09;97279.58;1688124;84;21024;-79
2022/04/06 08:25:42;;;;;;;11.22;7.67;;;;;;;13.41;49.92;97279.70;1718642;83;21032;-79
2022/04/06 08:28:10;;;;;;;10.50;7.55;;;;;;;13.48;50.92;97282.94;1657441;84;21065;-79
2022/04/06 08:30:42;;;;;;;11.28;7.75;;;;;;;13.58;51.28;97286.83;1710915;83;20997;-81
2022/04/06 08:33:11;;;;;;;9.48;7.35;;;;;;;13.68;50.34;97287.22;1688660;84;21036;-79
2022/04/06 08:35:38;;;;;;;16.48;10.23;;;;;;;13.77;49.91;97290.30;1710392;83;21403;-80
2022/04/06 08:38:05;;;;;;;11.15;7.35;;;;;;;13.84;49.93;97287.71;1688947;84;22142;-80
2022/04/06 08:40:33;;;;;;;7.50;5.92;;;;;;;13.91;49.86;97290.41;1686624;84;21014;-79
2022/04/06 08:43:01;;;;;;;9.15;6.30;;;;;;;14.03;48.40;97292.88;1688163;84;21019;-80
2022/04/06 08:45:28;;;;;;;9.58;7.30;;;;;;;14.07;48.65;97290.94;1691360;84;21097;-80
2022/04/06 08:47:57;;;;;;;10.00;7.00;;;;;;;14.09;48.99;97298.36;1686034;84;21027;-79
2022/04/06 08:50:33;;;;;;;9.63;6.70;;;;;;;14.14;48.69;97297.63;1706522;83;21079;-80
2022/04/06 08:52:59;;;;;;;8.18;6.08;;;;;;;14.14;48.88;97296.30;1713582;83;21462;-80
2022/04/06 08:55:25;;;;;;;7.72;6.25;;;;;;;14.15;48.48;97298.50;1709172;83;21008;-80
2022/04/06 08:57:52;;;;;;;9.58;5.55;;;;;;;14.16;48.25;97301.05;1713168;83;21059;-81
2022/04/06 09:00:19;;;;;;;8.13;5.37;;;;;;;14.16;48.07;97296.22;1710050;83;20980;-79
2022/04/06 09:02:46;;;;;;;7.80;5.20;;;;;;;14.16;47.67;97293.55;1714767;83;21008;-79
2022/04/06 09:05:13;;;;;;;9.15;6.35;;;;;;;14.19;47.34;97298.69;1712427;83;20996;-79
2022/04/06 09:07:41;;;;;;;10.98;5.80;;;;;;;14.27;47.99;97295.63;1711973;83;21426;-79
2022/04/06 09:10:10;;;;;;;8.18;5.95;;;;;;;14.39;47.58;97295.79;1710452;83;21091;-78
2022/04/06 09:12:36;;;;;;;10.43;6.00;;;;;;;14.55;47.34;97294.05;1704664;83;21032;-79
2022/04/06 09:15:10;;;;;;;6.78;5.92;;;;;;;14.69;47.50;97294.61;1705540;83;21467;-78
2022/04/06 09:17:45;;;;;;;;;;;;;;;14.86;47.16;97285.66;1713326;83;21012;-79
2022/04/06 09:20:12;;;;;;;;;;;;;;;14.97;47.11;97282.33;1710910;83;20182;-79
2022/04/06 09:22:40;;;;;;;7.10;5.50;;;;;;;15.02;46.28;97285.13;1710921;83;20119;-80
2022/04/06 09:25:10;;;;;;;7.92;5.75;;;;;;;15.14;46.26;97286.67;1710297;83;21414;-80
2022/04/06 09:27:41;;;;;;;8.30;5.80;;;;;;;15.29;46.19;97283.08;1709149;83;20999;-80
2022/04/06 09:30:10;;;;;;;10.50;6.12;;;;;;;15.37;44.90;97284.44;1710427;83;21013;-81
2022/04/06 09:32:37;;;;;;;9.08;6.60;;;;;;;15.49;44.66;97282.83;1714379;83;21044;-81
2022/04/06 09:35:29;;;;;;;13.30;7.85;;;;;;;15.61;45.29;97277.22;1703665;83;21016;-81
2022/04/06 09:38:26;;;;;;;9.13;6.47;;;;;;;15.68;45.46;97277.20;1684106;83;21059;-81
2022/04/06 09:41:14;;;;;;;9.28;6.15;;;;;;;15.84;45.39;97279.78;1710333;83;20957;-80
2022/04/06 09:43:36;;;;;;;8.95;5.83;;;;;;;15.89;45.05;97279.48;1716130;82;21020;-81
2022/04/06 09:49:18;;;;;;;9.18;6.37;;;;;;;15.71;43.33;97275.19;1708998;83;20965;-79
2022/04/06 09:51:54;;;;;;;7.65;6.17;;;;;;;15.36;42.50;97260.88;1706253;83;21025;-80
2022/04/06 09:54:19;;;;;;;6.37;5.10;;;;;;;15.27;44.30;97260.09;1710290;83;21017;-79
2022/04/06 09:56:47;;;;;;;8.78;5.65;;;;;;;15.23;44.63;97259.92;1707940;83;22082;-80
2022/04/06 09:59:15;;;;;;;7.75;5.87;;;;;;;15.28;44.64;97257.34;1716404;83;20942;-78
2022/04/06 10:01:48;;;;;;;7.53;5.67;;;;;;;15.33;44.96;97251.73;1709857;83;21111;-77
2022/04/06 10:04:19;;;;;;;9.28;5.47;;;;;;;15.39;43.62;97247.34;1708913;83;21032;-80
2022/04/06 10:06:45;;;;;;;8.28;5.47;;;;;;;15.41;44.01;97252.10;1715181;83;21007;-80
2022/04/06 10:09:16;;;;;;;7.72;5.62;;;;;;;15.39;43.35;97248.68;1712832;82;21071;-79
2022/04/06 10:11:43;;;;;;;7.20;5.03;;;;;;;15.38;44.30;97251.44;1720738;83;21436;-80
2022/04/06 10:14:11;;;;;;;7.90;5.50;;;;;;;15.42;44.46;97248.51;1717340;83;20949;-80
2022/04/06 10:16:38;;;;;;;5.80;5.08;;;;;;;15.52;44.37;97249.25;1712465;83;21005;-81
2022/04/06 10:19:08;;;;;;;8.13;4.67;;;;;;;15.57;44.32;97238.67;1716617;83;20976;-81
2022/04/06 10:21:58;;;;;;;6.22;4.78;;;;;;;15.63;44.14;97248.59;1703617;83;21075;-80
2022/04/06 10:25:04;;;;;;;4.95;4.45;;;;;;;15.71;44.29;97245.81;1702339;84;21482;-80
2022/04/06 10:27:38;;;;;;;10.58;5.17;;;;;;;15.90;44.21;97237.97;1700360;84;21036;-80
2022/04/06 10:30:13;;;;;;;;;;;;;;;16.00;43.94;97240.97;1713232;84;21030;-81
2022/04/06 10:32:43;;;;;;;10.23;4.90;;;;;;;16.05;43.88;97237.52;1703993;84;20139;-81
2022/04/06 10:35:35;;;;;;;6.20;4.97;;;;;;;16.16;43.85;97235.97;1704441;83;21029;-81
2022/04/06 10:38:10;;;;;;;6.53;4.97;;;;;;;16.23;43.62;97237.27;1708456;84;21462;-80
2022/04/06 10:40:48;;;;;;;7.87;3.85;;;;;;;16.29;42.75;97233.34;1699296;84;21075;-81
2022/04/06 10:43:40;;;;;;;6.20;3.90;;;;;;;16.55;41.18;97232.97;1697621;84;20996;-81
2022/04/06 10:46:16;;;;;;;5.03;3.75;;;;;;;17.52;40.49;97226.52;1708992;84;21029;-80
2022/04/06 10:49:13;;;;;;;5.40;4.25;;;;;;;18.36;41.33;97221.89;1699048;84;20980;-80
2022/04/06 10:51:48;;;;;;;5.85;4.40;;;;;;;18.67;37.26;97216.91;1699196;84;21393;-79
2022/04/06 10:54:21;;;;;;;5.17;4.30;;;;;;;18.64;36.91;97218.98;1708149;84;21000;-78
2022/04/06 10:56:55;;;;;;;26.77;19.55;;;;;;;19.72;37.69;97214.34;1698721;83;21012;-78
2022/04/06 10:59:24;;;;;;;6.33;4.47;;;;;;;20.34;36.76;97212.08;1699771;84;21008;-79
2022/04/06 11:02:18;;;;;;;5.45;3.98;;;;;;;21.39;35.94;97206.97;1702619;83;21525;-78
2022/04/06 11:04:48;;;;;;;5.22;3.62;;;;;;;21.14;31.57;97209.09;1697654;83;21545;-79
2022/04/06 11:10:25;;;;;;;8.90;3.58;;;;;;;19.91;32.96;97213.23;1711552;84;20997;-79
2022/04/06 11:13:10;;;;;;;16.45;5.37;;;;;;;19.43;34.97;97208.94;1709361;84;21053;-79
2022/04/06 11:15:41;;;;;;;6.25;4.00;;;;;;;19.20;34.60;97204.91;1705655;84;21533;-79
2022/04/06 11:18:46;;;;;;;5.37;3.55;;;;;;;18.86;33.93;97199.41;1694154;84;20980;-79
2022/04/06 11:21:14;;;;;;;6.72;4.15;;;;;;;18.65;34.79;97197.40;1700727;83;21088;-79
2022/04/06 11:23:42;;;;;;;7.22;4.00;;;;;;;18.63;34.26;97190.44;1700172;83;21450;-78
2022/04/06 11:26:10;;;;;;;16.95;4.80;;;;;;;18.69;35.33;97185.43;1713725;83;21542;-79
2022/04/06 11:28:37;;;;;;;6.25;3.65;;;;;;;19.12;34.21;97185.36;1710206;83;21060;-79
2022/04/06 11:31:04;;;;;;;5.97;3.80;;;;;;;18.91;33.86;97184.28;1714388;83;21095;-79
2022/04/06 11:33:42;;;;;;;7.42;3.05;;;;;;;19.54;34.86;97186.60;1706553;83;21115;-79
2022/04/06 11:36:17;;;;;;;3.92;3.17;;;;;;;20.24;33.21;97180.19;1704534;83;21071;-79
2022/04/06 11:38:49;;;;;;;;;;;;;;;21.06;32.87;97172.52;1662488;84;21487;-79
2022/04/06 11:41:22;;;;;;;6.70;3.35;;;;;;;21.37;30.83;97169.84;1725750;82;20084;-77
2022/04/06 11:43:48;;;;;;;3.42;3.00;;;;;;;21.60;29.05;97166.98;1702870;83;22232;-79
2022/04/06 11:46:14;;;;;;;6.55;3.67;;;;;;;21.10;30.42;97172.63;1742626;80;21421;-77
2022/04/06 11:48:43;;;;;;;5.22;2.90;;;;;;;20.98;31.33;97171.83;1728626;80;20992;-79